LRCL - CLUJ NAPOCA / AVRAM IANCU

Compiled: 21:30:29 on 19/01/2018

Latest METAR/SPECI Reports

METAR LRCL 192100Z 11002KT 3000 BR FEW046 SCT058 01/M00 Q1010 R07/29//95=

Previous reports

METAR LRCL 192030Z 04003KT 360V070 3000 BR SCT065 01/M00 Q1009 R07/29//95=
METAR LRCL 192000Z VRB01KT 3000 BR SCT056 01/M00 Q1009 R07/29//95=
METAR LRCL 191930Z VRB02KT 3000 BR SCT051 01/M00 Q1009 R07/29//95=
SPECI LRCL 191907Z 10004KT 3000 -RA BR FEW033 BKN050 01/M00 Q1009 R07/29//95=

Latest TAF report

TAF LRCL 192000Z 1921/2006 VRB04KT 3000 BR SCT045 TEMPO 1921/1923 1500 -RA BR BKN015 BKN040 TEMPO 1923/2002 1500 -RASN BR BKN015 BKN040 TEMPO 2002/2006 1500 BR BKN005 BKN035=

Valid WARNINGS

No valid warnings for LRCL